createdAt,value
2018-03-11T00:01:49.805Z,18.97
2018-03-11T00:04:17.323Z,18.07
2018-03-11T00:06:45.714Z,16.63
2018-03-11T00:09:13.241Z,16.80
2018-03-11T00:11:40.755Z,16.73
2018-03-11T00:14:09.117Z,16.60
2018-03-11T00:16:36.663Z,14.93
2018-03-11T00:19:04.187Z,17.57
2018-03-11T00:21:31.824Z,17.17
2018-03-11T00:24:00.237Z,16.63
2018-03-11T00:26:27.767Z,16.27
2018-03-11T00:28:56.094Z,17.43
2018-03-11T00:31:23.618Z,16.83
2018-03-11T00:33:51.142Z,17.03
2018-03-11T00:36:18.664Z,17.23
2018-03-11T00:38:46.964Z,16.10
2018-03-11T00:41:14.466Z,18.07
2018-03-11T00:43:41.999Z,17.37
2018-03-11T00:46:09.587Z,16.20
2018-03-11T00:48:37.107Z,16.67
2018-03-11T00:51:05.384Z,17.23
2018-03-11T00:53:33.684Z,16.67
2018-03-11T00:56:01.219Z,16.37
2018-03-11T00:58:29.500Z,15.67
2018-03-11T01:00:57.811Z,15.67
2018-03-11T01:03:25.334Z,16.30
2018-03-11T01:05:52.851Z,15.70
2018-03-11T01:08:20.618Z,16.60
2018-03-11T01:10:48.184Z,16.00
2018-03-11T01:13:15.725Z,15.87
2018-03-11T01:15:44.015Z,16.43
2018-03-11T01:18:11.538Z,15.53
2018-03-11T01:20:39.086Z,16.00
2018-03-11T01:23:06.704Z,16.17
2018-03-11T01:25:34.280Z,16.47
2018-03-11T01:28:01.795Z,17.03
2018-03-11T01:30:29.336Z,17.30
2018-03-11T01:32:56.871Z,17.37
2018-03-11T01:35:24.382Z,17.40
2018-03-11T01:37:51.911Z,17.30
2018-03-11T01:40:19.463Z,17.00
2018-03-11T01:42:46.991Z,15.63
2018-03-11T01:45:15.315Z,16.80
2018-03-11T01:47:42.919Z,17.07
2018-03-11T01:50:10.443Z,16.97
2018-03-11T01:52:50.710Z,17.80
2018-03-11T01:55:18.331Z,15.73
2018-03-11T01:57:46.625Z,16.83
2018-03-11T02:00:14.191Z,16.17
2018-03-11T02:02:41.719Z,16.07
2018-03-11T02:05:10.015Z,15.73
2018-03-11T02:07:37.620Z,16.10
2018-03-11T02:10:05.306Z,16.30
2018-03-11T02:12:32.810Z,15.03
2018-03-11T02:15:00.415Z,16.20
2018-03-11T02:17:28.079Z,15.43
2018-03-11T02:19:55.646Z,14.87
2018-03-11T02:22:23.204Z,16.90
2018-03-11T02:24:50.736Z,15.47
2018-03-11T02:27:18.282Z,15.27
2018-03-11T02:29:45.818Z,14.47
2018-03-11T02:32:13.339Z,14.60
2018-03-11T02:34:41.631Z,13.87
2018-03-11T02:37:09.175Z,15.63
2018-03-11T02:39:37.455Z,14.40
2018-03-11T02:42:04.971Z,16.20
2018-03-11T02:44:32.494Z,14.70
2018-03-11T02:47:00.778Z,14.90
2018-03-11T02:49:29.189Z,16.33
2018-03-11T02:51:56.719Z,14.60
2018-03-11T02:54:25.018Z,14.93
2018-03-11T02:56:54.287Z,13.93
2018-03-11T02:59:21.852Z,14.23
2018-03-11T03:01:49.385Z,14.60
2018-03-11T03:04:16.892Z,13.50
2018-03-11T03:06:45.188Z,13.60
2018-03-11T03:09:13.462Z,15.07
2018-03-11T03:11:41.820Z,14.97
2018-03-11T03:14:09.431Z,16.40
2018-03-11T03:16:36.944Z,15.77
2018-03-11T03:19:05.983Z,14.00
2018-03-11T03:21:34.333Z,15.43
2018-03-11T03:24:01.859Z,15.70
2018-03-11T03:26:29.371Z,15.77
2018-03-11T03:28:56.904Z,15.30
2018-03-11T03:31:24.435Z,16.43
2018-03-11T03:33:51.955Z,16.17
2018-03-11T03:36:19.515Z,16.07
2018-03-11T03:38:47.033Z,15.87
2018-03-11T03:41:14.800Z,15.83
2018-03-11T03:43:42.937Z,16.77
2018-03-11T03:46:10.462Z,17.20
2018-03-11T03:48:37.983Z,17.23
2018-03-11T03:51:06.300Z,16.63
2018-03-11T03:53:33.821Z,17.13
2018-03-11T03:56:02.100Z,17.07
2018-03-11T03:58:30.417Z,16.87
2018-03-11T04:00:57.929Z,16.67
2018-03-11T04:03:25.446Z,14.50
2018-03-11T04:05:53.019Z,16.87
2018-03-11T04:08:20.524Z,15.97
2018-03-11T04:10:48.036Z,14.33
2018-03-11T04:13:15.682Z,15.77
2018-03-11T04:15:43.984Z,14.67
2018-03-11T04:18:11.499Z,15.27
2018-03-11T04:20:39.034Z,16.40
2018-03-11T04:23:06.563Z,15.77
2018-03-11T04:25:34.102Z,17.00
2018-03-11T04:28:02.426Z,15.87
2018-03-11T04:30:29.949Z,15.67
2018-03-11T04:32:58.245Z,14.13
2018-03-11T04:35:26.574Z,14.80
2018-03-11T04:37:54.090Z,14.47
2018-03-11T04:40:22.367Z,15.67
2018-03-11T04:42:50.675Z,15.70
2018-03-11T04:45:18.199Z,14.07
2018-03-11T04:47:45.703Z,13.80
2018-03-11T04:50:13.266Z,13.60
2018-03-11T04:52:40.836Z,14.20
2018-03-11T04:55:08.342Z,14.60
2018-03-11T04:57:37.374Z,15.33
2018-03-11T05:00:05.648Z,13.60
2018-03-11T05:02:33.927Z,15.20
2018-03-11T05:05:01.474Z,15.70
2018-03-11T05:07:29.755Z,18.40
2018-03-11T05:09:57.257Z,17.13
2018-03-11T05:12:24.799Z,18.67
2018-03-11T05:14:53.163Z,16.80
2018-03-11T05:17:22.202Z,16.97
2018-03-11T05:19:49.776Z,18.57
2018-03-11T05:22:17.290Z,19.13
2018-03-11T05:24:46.316Z,19.33
2018-03-11T05:27:14.631Z,19.13
2018-03-11T05:29:42.166Z,19.07
2018-03-11T05:32:09.990Z,19.53
2018-03-11T05:34:37.535Z,20.23
2018-03-11T05:37:05.821Z,18.03
2018-03-11T05:39:33.362Z,20.10
2018-03-11T05:42:00.917Z,19.53
2018-03-11T05:44:28.884Z,19.90
2018-03-11T05:46:56.372Z,19.43
2018-03-11T05:49:23.930Z,19.20
2018-03-11T05:51:51.439Z,18.87
2018-03-11T05:54:18.948Z,18.33
2018-03-11T05:56:46.478Z,20.30
2018-03-11T05:59:14.033Z,18.10
2018-03-11T06:01:41.650Z,20.73
2018-03-11T06:04:09.203Z,20.07
2018-03-11T06:06:37.483Z,22.80
2018-03-11T06:09:04.996Z,19.57
2018-03-11T06:11:32.519Z,21.43
2018-03-11T06:14:00.034Z,23.67
2018-03-11T06:16:27.625Z,22.60
2018-03-11T06:18:55.944Z,21.63
2018-03-11T06:21:23.459Z,23.13
2018-03-11T06:23:51.742Z,23.77
2018-03-11T06:26:20.766Z,21.43
2018-03-11T06:28:49.622Z,20.90
2018-03-11T06:31:18.724Z,23.40
2018-03-11T06:33:47.034Z,24.13
2018-03-11T06:36:15.334Z,20.67
2018-03-11T06:38:42.900Z,22.73
2018-03-11T06:41:10.502Z,21.70
2018-03-11T06:43:38.494Z,20.30
2018-03-11T06:46:06.015Z,20.70
2018-03-11T06:48:33.595Z,20.23
2018-03-11T06:51:01.104Z,18.40
2018-03-11T06:53:29.388Z,18.47
2018-03-11T06:55:57.689Z,19.00
2018-03-11T06:58:25.209Z,18.27
2018-03-11T07:00:52.725Z,18.00
2018-03-11T07:03:20.261Z,18.43
2018-03-11T07:05:48.549Z,18.80
2018-03-11T07:08:16.830Z,17.27
2018-03-11T07:10:45.306Z,17.60
2018-03-11T07:13:13.587Z,17.20
2018-03-11T07:15:41.864Z,17.40
2018-03-11T07:18:10.267Z,18.20
2018-03-11T07:20:37.787Z,18.23
2018-03-11T07:23:05.322Z,16.70
2018-03-11T07:25:32.855Z,18.03
2018-03-11T07:28:00.394Z,16.93
2018-03-11T07:30:27.920Z,18.00
2018-03-11T07:32:55.460Z,19.10
2018-03-11T07:35:22.982Z,19.73
2018-03-11T07:37:51.263Z,20.20
2018-03-11T07:40:18.819Z,18.97
2018-03-11T07:42:47.127Z,19.43
2018-03-11T07:45:15.410Z,19.90
2018-03-11T07:47:43.730Z,19.87
2018-03-11T07:50:11.236Z,20.07
2018-03-11T07:52:40.255Z,19.03
2018-03-11T07:55:08.553Z,20.00
2018-03-11T07:57:36.103Z,19.23
2018-03-11T08:00:04.387Z,17.40
2018-03-11T08:02:32.710Z,18.10
2018-03-11T08:05:00.223Z,18.90
2018-03-11T08:07:28.519Z,17.80
2018-03-11T08:09:56.100Z,18.03
2018-03-11T08:12:23.618Z,17.60
2018-03-11T08:14:51.142Z,18.70
2018-03-11T08:17:18.680Z,18.20
2018-03-11T08:19:46.275Z,17.33
2018-03-11T08:22:13.795Z,17.03
2018-03-11T08:24:42.110Z,17.40
2018-03-11T08:27:09.683Z,18.13
2018-03-11T08:29:37.237Z,18.00
2018-03-11T08:32:04.774Z,17.60
2018-03-11T08:34:33.073Z,16.70
2018-03-11T08:37:00.662Z,16.87
2018-03-11T08:39:28.231Z,17.00
2018-03-11T08:41:55.772Z,16.70
2018-03-11T08:44:23.718Z,17.57
2018-03-11T08:46:52.040Z,17.80
2018-03-11T08:49:19.598Z,17.87
2018-03-11T08:51:47.128Z,17.00
2018-03-11T08:54:15.451Z,17.03
2018-03-11T08:56:42.981Z,16.90
2018-03-11T08:59:11.282Z,16.87
2018-03-11T09:04:19.839Z,17.80
2018-03-11T09:06:47.371Z,16.80
2018-03-11T09:09:14.887Z,16.90
2018-03-11T09:11:42.429Z,17.40
2018-03-11T09:14:09.954Z,16.77
2018-03-11T09:16:38.235Z,16.60
2018-03-11T09:19:06.541Z,16.13
2018-03-11T09:21:34.196Z,15.80
2018-03-11T09:24:01.732Z,14.80
2018-03-11T09:26:30.039Z,16.60
2018-03-11T09:28:57.615Z,14.30
2018-03-11T09:31:25.157Z,15.00
2018-03-11T09:33:53.465Z,14.20
2018-03-11T09:36:21.008Z,14.30
2018-03-11T09:38:49.286Z,13.00
2018-03-11T09:41:17.592Z,13.87
2018-03-11T09:43:45.107Z,13.43
2018-03-11T09:46:12.624Z,12.93
2018-03-11T09:48:40.175Z,13.83
2018-03-11T09:51:07.718Z,13.63
2018-03-11T09:53:35.267Z,13.97
2018-03-11T09:56:02.799Z,13.00
2018-03-11T09:58:30.316Z,13.93
2018-03-11T10:00:58.608Z,13.13
2018-03-11T10:03:26.146Z,12.23
2018-03-11T10:05:55.187Z,12.20
2018-03-11T10:08:22.762Z,12.60
2018-03-11T10:10:50.319Z,12.17
2018-03-11T10:13:17.848Z,12.23
2018-03-11T10:15:46.137Z,13.27
2018-03-11T10:18:14.463Z,12.50
2018-03-11T10:20:42.005Z,13.50
2018-03-11T10:23:09.606Z,13.13
2018-03-11T10:25:37.143Z,13.90
2018-03-11T10:28:04.670Z,13.67
2018-03-11T10:30:32.966Z,13.50
2018-03-11T10:33:01.287Z,14.30
2018-03-11T10:35:28.806Z,13.13
2018-03-11T10:37:57.106Z,13.73
2018-03-11T10:40:24.646Z,13.70
2018-03-11T10:42:52.936Z,13.53
2018-03-11T10:45:20.478Z,12.63
2018-03-11T10:47:48.790Z,12.90
2018-03-11T10:50:16.331Z,12.87
2018-03-11T10:52:44.726Z,13.10
2018-03-11T10:55:13.032Z,13.00
2018-03-11T10:57:40.578Z,12.90
2018-03-11T11:00:08.918Z,12.07
2018-03-11T11:02:37.411Z,12.77
2018-03-11T11:05:05.743Z,12.33
2018-03-11T11:07:33.248Z,12.97
2018-03-11T11:10:00.836Z,13.47
2018-03-11T11:12:28.381Z,13.37
2018-03-11T11:14:55.875Z,13.37
2018-03-11T11:17:24.195Z,14.27
2018-03-11T11:19:51.714Z,12.77
2018-03-11T11:22:19.987Z,13.10
2018-03-11T11:24:48.423Z,12.07
2018-03-11T11:27:15.965Z,12.20
2018-03-11T11:29:43.476Z,13.20
2018-03-11T11:32:11.211Z,13.00
2018-03-11T11:34:38.730Z,12.43
2018-03-11T11:37:06.263Z,12.70
2018-03-11T11:39:34.923Z,12.70
2018-03-11T11:42:04.366Z,13.40
2018-03-11T11:44:32.719Z,13.47
2018-03-11T11:47:00.682Z,13.10
2018-03-11T11:49:28.325Z,12.27
2018-03-11T11:51:56.609Z,11.80
2018-03-11T11:54:24.929Z,13.63
2018-03-11T11:56:52.460Z,12.77
2018-03-11T11:59:20.741Z,12.10
2018-03-11T12:01:49.061Z,12.53
2018-03-11T12:06:51.464Z,10.93
2018-03-11T12:09:19.025Z,10.97
2018-03-11T12:11:46.546Z,11.00
2018-03-11T12:14:14.867Z,10.70
2018-03-11T12:16:42.387Z,10.57
2018-03-11T12:19:10.682Z,11.07
2018-03-11T12:21:38.217Z,10.70
2018-03-11T12:24:05.750Z,10.67
2018-03-11T12:26:33.438Z,10.87
2018-03-11T12:29:00.986Z,9.83
2018-03-11T12:31:28.510Z,9.90
2018-03-11T12:33:56.035Z,10.57
2018-03-11T12:36:25.091Z,10.17
2018-03-11T12:38:52.650Z,10.20
2018-03-11T12:41:20.227Z,9.57
2018-03-11T12:43:47.762Z,9.43
2018-03-11T12:46:15.373Z,10.67
2018-03-11T12:48:42.894Z,10.40
2018-03-11T12:51:10.458Z,11.30
2018-03-11T12:53:37.980Z,9.97
2018-03-11T12:56:05.506Z,10.67
2018-03-11T12:58:33.031Z,9.57
2018-03-11T13:01:01.348Z,9.57
2018-03-11T13:03:28.863Z,9.27
2018-03-11T13:05:58.183Z,8.73
2018-03-11T13:08:26.466Z,8.83
2018-03-11T13:10:54.751Z,8.40
2018-03-11T13:13:22.843Z,9.00
2018-03-11T13:15:50.379Z,8.70
2018-03-11T13:18:18.670Z,8.57
2018-03-11T13:20:58.700Z,8.63
2018-03-11T13:23:27.011Z,9.23
2018-03-11T13:25:54.531Z,8.67
2018-03-11T13:28:34.024Z,8.23
2018-03-11T13:31:01.581Z,8.00
2018-03-11T13:33:41.091Z,8.80
2018-03-11T13:36:08.608Z,8.30
2018-03-11T13:38:47.983Z,9.03
2018-03-11T13:41:17.003Z,8.67
2018-03-11T13:43:45.278Z,8.10
2018-03-11T13:46:25.561Z,8.43
2018-03-11T13:48:53.847Z,8.10
2018-03-11T13:51:33.447Z,8.03
2018-03-11T13:54:01.754Z,8.07
2018-03-11T13:56:29.263Z,7.67
2018-03-11T13:58:56.914Z,7.07
2018-03-11T14:01:24.418Z,7.60
2018-03-11T14:03:52.696Z,7.53
2018-03-11T14:06:20.235Z,7.10
2018-03-11T14:08:47.747Z,6.70
2018-03-11T14:11:15.270Z,7.27
2018-03-11T14:13:42.793Z,7.20
2018-03-11T14:16:10.311Z,7.60
2018-03-11T14:18:37.912Z,7.20
2018-03-11T14:21:05.443Z,6.70
2018-03-11T14:23:34.477Z,7.30
2018-03-11T14:26:01.984Z,6.93
2018-03-11T14:28:29.590Z,7.17
2018-03-11T14:30:57.902Z,6.70
2018-03-11T14:33:25.491Z,7.53
2018-03-11T14:35:57.639Z,7.37
2018-03-11T14:38:25.986Z,7.30
2018-03-11T14:40:54.259Z,7.33
2018-03-11T14:43:21.847Z,7.10
2018-03-11T14:45:49.358Z,6.67
2018-03-11T14:48:16.870Z,7.33
2018-03-11T14:50:44.415Z,7.10
2018-03-11T14:53:12.288Z,6.77
2018-03-11T14:55:39.799Z,6.93
2018-03-11T14:58:07.334Z,6.67
2018-03-11T15:00:35.606Z,7.50
2018-03-11T15:03:03.882Z,6.80
2018-03-11T15:05:32.200Z,7.20
2018-03-11T15:07:59.702Z,7.17
2018-03-11T15:10:27.206Z,7.77
2018-03-11T15:12:55.507Z,6.57
2018-03-11T15:15:23.029Z,6.83
2018-03-11T15:17:51.309Z,6.57
2018-03-11T15:20:19.858Z,6.80
2018-03-11T15:22:47.405Z,6.70
2018-03-11T15:25:14.908Z,6.30
2018-03-11T15:27:42.439Z,6.47
2018-03-11T15:30:10.051Z,6.37
2018-03-11T15:32:37.638Z,6.30
2018-03-11T15:35:05.946Z,6.27
2018-03-11T15:37:33.535Z,6.67
2018-03-11T15:40:01.078Z,6.80
2018-03-11T15:42:28.613Z,6.03
2018-03-11T15:44:56.901Z,6.30
2018-03-11T15:47:24.407Z,6.63
2018-03-11T15:49:51.976Z,6.23
2018-03-11T15:52:19.495Z,6.50
2018-03-11T15:54:47.015Z,5.70
2018-03-11T15:57:14.539Z,5.93
2018-03-11T15:59:42.047Z,5.70
2018-03-11T16:02:09.627Z,6.17
2018-03-11T16:04:37.207Z,5.20
2018-03-11T16:07:05.503Z,5.87
2018-03-11T16:09:33.026Z,6.20
2018-03-11T16:12:01.368Z,6.03
2018-03-11T16:14:28.929Z,6.30
2018-03-11T16:16:56.434Z,6.90
2018-03-11T16:19:24.048Z,5.97
2018-03-11T16:21:51.567Z,5.87
2018-03-11T16:24:28.382Z,6.27
2018-03-11T16:26:46.657Z,5.97
2018-03-11T16:29:14.190Z,6.00
2018-03-11T16:31:42.859Z,6.00
2018-03-11T16:34:10.398Z,5.63
2018-03-11T16:36:37.911Z,6.10
2018-03-11T16:39:06.199Z,5.80
2018-03-11T16:41:33.943Z,5.80
2018-03-11T16:44:01.562Z,5.77
2018-03-11T16:46:29.079Z,6.37
2018-03-11T16:48:57.384Z,6.90
2018-03-11T16:51:25.018Z,6.43
2018-03-11T16:53:52.536Z,6.43
2018-03-11T16:56:20.063Z,6.50
2018-03-11T16:58:48.336Z,6.70
2018-03-11T17:01:15.932Z,6.90
2018-03-11T17:03:43.492Z,7.50
2018-03-11T17:06:11.058Z,7.83
2018-03-11T17:08:38.567Z,8.40
2018-03-11T17:11:06.883Z,8.17
2018-03-11T17:13:35.158Z,7.30
2018-03-11T17:16:03.435Z,7.67
2018-03-11T17:18:31.748Z,7.77
2018-03-11T17:20:59.287Z,7.33
2018-03-11T17:23:27.658Z,8.63
2018-03-11T17:25:55.259Z,8.10
2018-03-11T17:28:22.779Z,9.47
2018-03-11T17:30:51.062Z,8.77
2018-03-11T17:33:18.764Z,8.50
2018-03-11T17:35:46.288Z,7.87
2018-03-11T17:38:14.559Z,8.33
2018-03-11T17:40:42.110Z,8.57
2018-03-11T17:43:09.614Z,8.33
2018-03-11T17:45:37.923Z,8.13
2018-03-11T17:48:05.490Z,8.17
2018-03-11T17:50:33.002Z,8.37
2018-03-11T17:53:00.530Z,8.50
2018-03-11T17:55:28.081Z,8.10
2018-03-11T17:57:55.599Z,9.37
2018-03-11T18:00:23.911Z,10.03
2018-03-11T18:02:52.223Z,8.47
2018-03-11T18:05:19.755Z,9.17
2018-03-11T18:07:48.036Z,9.83
2018-03-11T18:10:15.654Z,10.67
2018-03-11T18:12:43.215Z,10.10
2018-03-11T18:15:11.486Z,10.10
2018-03-11T18:17:39.051Z,10.73
2018-03-11T18:20:06.586Z,11.87
2018-03-11T18:22:34.131Z,11.47
2018-03-11T18:25:02.477Z,10.60
2018-03-11T18:27:30.008Z,11.13
2018-03-11T18:29:57.538Z,11.80
2018-03-11T18:32:25.880Z,11.40
2018-03-11T18:34:53.479Z,11.53
2018-03-11T18:37:21.011Z,11.57
2018-03-11T18:39:48.558Z,11.80
2018-03-11T18:42:16.086Z,10.17
2018-03-11T18:44:44.370Z,10.30
2018-03-11T18:47:12.675Z,11.43
2018-03-11T18:49:40.220Z,10.27
2018-03-11T18:52:08.502Z,9.70
2018-03-11T18:54:36.822Z,11.40
2018-03-11T18:57:04.372Z,9.97
2018-03-11T18:59:31.899Z,10.23
2018-03-11T19:02:00.393Z,11.57
2018-03-11T19:04:28.697Z,11.43
2018-03-11T19:06:56.236Z,11.37
2018-03-11T19:09:24.542Z,11.03
2018-03-11T19:11:52.076Z,10.83
2018-03-11T19:14:20.388Z,10.10
2018-03-11T19:16:47.931Z,10.87
2018-03-11T19:19:16.246Z,10.50
2018-03-11T19:21:43.786Z,11.23
2018-03-11T19:24:12.142Z,11.10
2018-03-11T19:26:39.748Z,12.00
2018-03-11T19:29:07.305Z,11.03
2018-03-11T19:31:34.838Z,12.00
2018-03-11T19:34:02.350Z,11.60
2018-03-11T19:36:29.970Z,12.13
2018-03-11T19:38:58.303Z,12.23
2018-03-11T19:41:25.822Z,11.57
2018-03-11T19:43:54.358Z,12.37
2018-03-11T19:46:21.906Z,11.37
2018-03-11T19:48:49.429Z,12.00
2018-03-11T19:51:16.968Z,11.97
2018-03-11T19:53:44.563Z,10.90
2018-03-11T19:56:12.902Z,10.63
2018-03-11T19:58:40.456Z,11.03
2018-03-11T20:01:08.014Z,11.80
2018-03-11T20:03:35.554Z,11.23
2018-03-11T20:06:03.839Z,9.57
2018-03-11T20:08:31.525Z,12.17
2018-03-11T20:10:59.108Z,10.60
2018-03-11T20:13:26.813Z,11.23
2018-03-11T20:15:54.376Z,10.07
2018-03-11T20:18:22.669Z,10.47
2018-03-11T20:20:50.372Z,10.70
2018-03-11T20:23:17.958Z,10.67
2018-03-11T20:25:45.484Z,9.80
2018-03-11T20:28:13.786Z,10.90
2018-03-11T20:30:41.377Z,10.60
2018-03-11T20:33:08.887Z,10.97
2018-03-11T20:35:37.233Z,11.23
2018-03-11T20:38:04.836Z,10.30
2018-03-11T20:40:33.244Z,9.70
2018-03-11T20:43:00.779Z,15.40
2018-03-11T20:45:29.110Z,17.83
2018-03-11T20:47:56.638Z,12.73
2018-03-11T20:50:24.218Z,12.87
2018-03-11T20:52:51.767Z,11.83
2018-03-11T20:55:19.979Z,11.20
2018-03-11T20:57:47.504Z,11.50
2018-03-11T21:00:15.927Z,10.80
2018-03-11T21:02:43.595Z,10.83
2018-03-11T21:05:11.979Z,10.13
2018-03-11T21:07:41.092Z,9.60
2018-03-11T21:10:08.636Z,10.30
2018-03-11T21:12:36.168Z,9.70
2018-03-11T21:15:04.476Z,10.73
2018-03-11T21:17:32.001Z,10.17
2018-03-11T21:20:00.300Z,10.63
2018-03-11T21:22:28.639Z,10.20
2018-03-11T21:24:57.204Z,10.27
2018-03-11T21:27:24.746Z,9.57
2018-03-11T21:29:52.440Z,10.53
2018-03-11T21:32:19.949Z,9.93
2018-03-11T21:34:48.243Z,10.83
2018-03-11T21:37:16.589Z,9.80
2018-03-11T21:39:44.317Z,8.97
2018-03-11T21:42:11.841Z,10.87
2018-03-11T21:44:40.148Z,10.23
2018-03-11T21:47:07.721Z,9.97
2018-03-11T21:49:35.326Z,10.43
2018-03-11T21:52:02.870Z,11.80
2018-03-11T21:54:30.381Z,10.57
2018-03-11T21:56:58.697Z,10.77
2018-03-11T21:59:26.368Z,10.43
2018-03-11T22:01:53.874Z,10.47
2018-03-11T22:04:21.398Z,10.57
2018-03-11T22:06:49.122Z,10.97
2018-03-11T22:09:16.738Z,10.70
2018-03-11T22:11:44.363Z,10.73
2018-03-11T22:14:12.724Z,10.33
2018-03-11T22:16:40.244Z,10.53
2018-03-11T22:19:07.815Z,9.67
2018-03-11T22:21:35.478Z,9.37
2018-03-11T22:24:02.990Z,10.30
2018-03-11T22:26:32.036Z,9.83
2018-03-11T22:28:59.589Z,9.77
2018-03-11T22:31:27.227Z,10.40
2018-03-11T22:33:55.506Z,9.27
2018-03-11T22:36:24.546Z,10.47
2018-03-11T22:38:52.057Z,10.20
2018-03-11T22:41:19.676Z,10.30
2018-03-11T22:43:47.246Z,9.30
2018-03-11T22:46:14.807Z,10.10
2018-03-11T22:48:42.327Z,9.60
2018-03-11T22:51:11.395Z,9.93
2018-03-11T22:53:38.911Z,9.53
2018-03-11T22:56:07.322Z,9.23
2018-03-11T22:58:34.856Z,10.50
2018-03-11T23:01:03.133Z,10.20
2018-03-11T23:03:31.406Z,10.10
2018-03-11T23:05:58.930Z,9.60
2018-03-11T23:08:26.455Z,9.40
2018-03-11T23:10:54.738Z,8.67
2018-03-11T23:13:22.344Z,10.10
2018-03-11T23:15:49.984Z,9.23
2018-03-11T23:18:17.551Z,9.70
2018-03-11T23:20:45.116Z,8.57
2018-03-11T23:23:12.629Z,8.87
2018-03-11T23:25:40.130Z,9.57
2018-03-11T23:28:07.823Z,9.10
2018-03-11T23:30:35.390Z,8.80
2018-03-11T23:33:02.916Z,9.73
2018-03-11T23:35:31.267Z,9.60
2018-03-11T23:37:58.801Z,10.03
2018-03-11T23:40:26.322Z,10.00
2018-03-11T23:42:54.680Z,9.33
2018-03-11T23:45:22.960Z,9.10
2018-03-11T23:47:50.490Z,8.73
2018-03-11T23:50:18.463Z,8.60
2018-03-11T23:52:45.970Z,8.10
2018-03-11T23:55:13.486Z,9.17
2018-03-11T23:57:41.014Z,8.40
